Evergreen, Virginia
Current Conditions -  °F | °C
As of 10:55 PM on Friday 24 Oct 2014 (Local Time) from K0V4 Reporting Station
Clear Clear  
Wind Chill: 44°   Ceiling: Unl
Heat Index: 44°   Visibility: 10mi
Dew Point: 44°   Wind: 0mph
Humidity: 98%   Direction: NA
Pressure: 29.98"   Gusts: NA
Location:  37.32°N, 78.77°W
Report Text: K0V4 250255Z AUTO 00000KT 10SM CLR 07/07 A2998 RMK AO1 T00680065
Loading
Personal Weather Stations






























Interactive Weather Map
Tropical Storm Tracking
New forecast layout! Learn more

10-Day Weather Forecast

Advertisements
Track Severe Weather on mobile